sensor_id;sensor_type;location;lat;lon;timestamp;P1;durP1;ratioP1;P2;durP2;ratioP2
78489;SDS011;67776;52.012;4.736;2024-01-11T00:01:57;10.00;;;3.73;;
78489;SDS011;67776;52.012;4.736;2024-01-11T00:04:22;13.90;;;4.10;;
78489;SDS011;67776;52.012;4.736;2024-01-11T00:06:49;8.40;;;3.60;;
78489;SDS011;67776;52.012;4.736;2024-01-11T00:09:15;9.82;;;3.80;;
78489;SDS011;67776;52.012;4.736;2024-01-11T00:11:41;10.10;;;3.30;;
78489;SDS011;67776;52.012;4.736;2024-01-11T00:14:06;12.33;;;3.67;;
78489;SDS011;67776;52.012;4.736;2024-01-11T00:16:31;10.63;;;3.83;;
78489;SDS011;67776;52.012;4.736;2024-01-11T00:18:57;13.00;;;4.93;;
78489;SDS011;67776;52.012;4.736;2024-01-11T00:21:22;12.05;;;3.42;;
78489;SDS011;67776;52.012;4.736;2024-01-11T00:23:48;9.90;;;3.80;;
78489;SDS011;67776;52.012;4.736;2024-01-11T00:26:14;11.48;;;3.88;;
78489;SDS011;67776;52.012;4.736;2024-01-11T00:28:39;10.60;;;3.80;;
78489;SDS011;67776;52.012;4.736;2024-01-11T00:31:05;11.87;;;3.70;;
78489;SDS011;67776;52.012;4.736;2024-01-11T00:33:30;13.80;;;3.93;;
78489;SDS011;67776;52.012;4.736;2024-01-11T00:35:56;7.70;;;2.88;;
78489;SDS011;67776;52.012;4.736;2024-01-11T00:38:21;10.80;;;3.73;;
78489;SDS011;67776;52.012;4.736;2024-01-11T00:40:47;8.23;;;3.27;;
78489;SDS011;67776;52.012;4.736;2024-01-11T00:43:12;9.90;;;3.57;;
78489;SDS011;67776;52.012;4.736;2024-01-11T00:45:37;10.67;;;3.97;;
78489;SDS011;67776;52.012;4.736;2024-01-11T00:48:03;11.03;;;3.60;;
78489;SDS011;67776;52.012;4.736;2024-01-11T00:50:29;12.68;;;3.42;;
78489;SDS011;67776;52.012;4.736;2024-01-11T00:52:54;9.87;;;3.80;;
78489;SDS011;67776;52.012;4.736;2024-01-11T00:55:19;9.57;;;3.43;;
78489;SDS011;67776;52.012;4.736;2024-01-11T00:57:45;9.00;;;3.47;;
78489;SDS011;67776;52.012;4.736;2024-01-11T01:00:10;10.80;;;3.33;;
78489;SDS011;67776;52.012;4.736;2024-01-11T01:02:39;11.50;;;3.95;;
78489;SDS011;67776;52.012;4.736;2024-01-11T01:05:05;8.75;;;3.03;;
78489;SDS011;67776;52.012;4.736;2024-01-11T01:07:31;9.43;;;3.15;;
78489;SDS011;67776;52.012;4.736;2024-01-11T01:09:57;12.07;;;3.83;;
78489;SDS011;67776;52.012;4.736;2024-01-11T01:12:22;9.47;;;4.40;;
78489;SDS011;67776;52.012;4.736;2024-01-11T01:14:47;9.23;;;3.33;;
78489;SDS011;67776;52.012;4.736;2024-01-11T01:17:13;9.90;;;3.93;;
78489;SDS011;67776;52.012;4.736;2024-01-11T01:19:38;9.27;;;4.03;;
78489;SDS011;67776;52.012;4.736;2024-01-11T01:22:03;12.23;;;3.60;;
78489;SDS011;67776;52.012;4.736;2024-01-11T01:24:30;10.90;;;3.67;;
78489;SDS011;67776;52.012;4.736;2024-01-11T01:26:56;10.60;;;4.07;;
78489;SDS011;67776;52.012;4.736;2024-01-11T01:29:21;10.27;;;4.50;;
78489;SDS011;67776;52.012;4.736;2024-01-11T01:31:46;12.50;;;4.73;;
78489;SDS011;67776;52.012;4.736;2024-01-11T01:34:12;10.97;;;3.70;;
78489;SDS011;67776;52.012;4.736;2024-01-11T01:36:37;13.27;;;4.47;;
78489;SDS011;67776;52.012;4.736;2024-01-11T01:39:03;11.05;;;4.28;;
78489;SDS011;67776;52.012;4.736;2024-01-11T01:41:28;8.37;;;3.47;;
78489;SDS011;67776;52.012;4.736;2024-01-11T01:43:53;11.13;;;3.63;;
78489;SDS011;67776;52.012;4.736;2024-01-11T01:46:19;9.23;;;3.70;;
78489;SDS011;67776;52.012;4.736;2024-01-11T01:48:48;11.60;;;4.32;;
78489;SDS011;67776;52.012;4.736;2024-01-11T01:51:15;11.10;;;4.05;;
78489;SDS011;67776;52.012;4.736;2024-01-11T01:53:40;13.30;;;4.30;;
78489;SDS011;67776;52.012;4.736;2024-01-11T01:56:06;9.32;;;4.05;;
78489;SDS011;67776;52.012;4.736;2024-01-11T01:58:33;13.27;;;4.13;;
78489;SDS011;67776;52.012;4.736;2024-01-11T02:00:59;7.97;;;3.23;;
78489;SDS011;67776;52.012;4.736;2024-01-11T02:03:25;12.88;;;4.38;;
78489;SDS011;67776;52.012;4.736;2024-01-11T02:05:53;12.27;;;4.50;;
78489;SDS011;67776;52.012;4.736;2024-01-11T02:08:19;12.13;;;4.13;;
78489;SDS011;67776;52.012;4.736;2024-01-11T02:10:47;10.55;;;4.35;;
78489;SDS011;67776;52.012;4.736;2024-01-11T02:13:12;9.37;;;3.57;;
78489;SDS011;67776;52.012;4.736;2024-01-11T02:15:38;9.35;;;3.75;;
78489;SDS011;67776;52.012;4.736;2024-01-11T02:18:04;10.23;;;3.80;;
78489;SDS011;67776;52.012;4.736;2024-01-11T02:20:29;10.95;;;3.85;;
78489;SDS011;67776;52.012;4.736;2024-01-11T02:22:56;13.37;;;4.17;;
78489;SDS011;67776;52.012;4.736;2024-01-11T02:25:26;11.98;;;3.72;;
78489;SDS011;67776;52.012;4.736;2024-01-11T02:27:51;11.93;;;3.93;;
78489;SDS011;67776;52.012;4.736;2024-01-11T02:30:17;11.77;;;5.00;;
78489;SDS011;67776;52.012;4.736;2024-01-11T02:32:43;14.55;;;3.95;;
78489;SDS011;67776;52.012;4.736;2024-01-11T02:35:11;12.55;;;4.90;;
78489;SDS011;67776;52.012;4.736;2024-01-11T02:37:38;9.38;;;3.92;;
78489;SDS011;67776;52.012;4.736;2024-01-11T02:40:04;10.23;;;3.50;;
78489;SDS011;67776;52.012;4.736;2024-01-11T02:42:32;8.03;;;3.73;;
78489;SDS011;67776;52.012;4.736;2024-01-11T02:44:57;12.50;;;4.67;;
78489;SDS011;67776;52.012;4.736;2024-01-11T02:47:23;10.13;;;3.65;;
78489;SDS011;67776;52.012;4.736;2024-01-11T02:49:48;11.50;;;4.57;;
78489;SDS011;67776;52.012;4.736;2024-01-11T02:52:13;14.60;;;4.47;;
78489;SDS011;67776;52.012;4.736;2024-01-11T02:54:38;12.93;;;4.67;;
78489;SDS011;67776;52.012;4.736;2024-01-11T02:57:04;12.33;;;4.47;;
78489;SDS011;67776;52.012;4.736;2024-01-11T02:59:29;13.33;;;3.73;;
78489;SDS011;67776;52.012;4.736;2024-01-11T03:01:54;12.37;;;3.47;;
78489;SDS011;67776;52.012;4.736;2024-01-11T03:04:20;11.13;;;4.78;;
78489;SDS011;67776;52.012;4.736;2024-01-11T03:06:45;12.60;;;4.53;;
78489;SDS011;67776;52.012;4.736;2024-01-11T03:09:11;13.67;;;4.73;;
78489;SDS011;67776;52.012;4.736;2024-01-11T03:11:36;12.37;;;4.33;;
78489;SDS011;67776;52.012;4.736;2024-01-11T03:14:02;16.48;;;4.15;;
78489;SDS011;67776;52.012;4.736;2024-01-11T03:16:28;13.57;;;4.37;;
78489;SDS011;67776;52.012;4.736;2024-01-11T03:18:53;15.43;;;4.90;;
78489;SDS011;67776;52.012;4.736;2024-01-11T03:21:18;11.73;;;4.10;;
78489;SDS011;67776;52.012;4.736;2024-01-11T03:23:44;10.90;;;3.80;;
78489;SDS011;67776;52.012;4.736;2024-01-11T03:26:13;13.57;;;4.30;;
78489;SDS011;67776;52.012;4.736;2024-01-11T03:28:42;11.35;;;3.97;;
78489;SDS011;67776;52.012;4.736;2024-01-11T03:31:10;14.97;;;4.30;;
78489;SDS011;67776;52.012;4.736;2024-01-11T03:33:35;11.55;;;4.80;;
78489;SDS011;67776;52.012;4.736;2024-01-11T03:36:10;15.83;;;4.87;;
78489;SDS011;67776;52.012;4.736;2024-01-11T03:38:36;15.15;;;4.93;;
78489;SDS011;67776;52.012;4.736;2024-01-11T03:41:02;14.50;;;4.67;;
78489;SDS011;67776;52.012;4.736;2024-01-11T03:43:32;12.45;;;3.80;;
78489;SDS011;67776;52.012;4.736;2024-01-11T03:45:57;11.80;;;3.97;;
78489;SDS011;67776;52.012;4.736;2024-01-11T03:48:23;12.60;;;5.03;;
78489;SDS011;67776;52.012;4.736;2024-01-11T03:50:48;15.55;;;6.18;;
78489;SDS011;67776;52.012;4.736;2024-01-11T03:53:14;13.23;;;4.23;;
78489;SDS011;67776;52.012;4.736;2024-01-11T03:55:39;15.53;;;4.83;;
78489;SDS011;67776;52.012;4.736;2024-01-11T03:58:04;12.67;;;5.60;;
78489;SDS011;67776;52.012;4.736;2024-01-11T04:00:29;17.13;;;6.17;;
78489;SDS011;67776;52.012;4.736;2024-01-11T04:02:55;12.43;;;4.97;;
78489;SDS011;67776;52.012;4.736;2024-01-11T04:05:20;9.90;;;4.57;;
78489;SDS011;67776;52.012;4.736;2024-01-11T04:07:45;16.33;;;6.43;;
78489;SDS011;67776;52.012;4.736;2024-01-11T04:10:11;16.07;;;6.40;;
78489;SDS011;67776;52.012;4.736;2024-01-11T04:12:36;14.13;;;5.07;;
78489;SDS011;67776;52.012;4.736;2024-01-11T04:15:02;15.25;;;5.20;;
78489;SDS011;67776;52.012;4.736;2024-01-11T04:17:28;16.00;;;5.23;;
78489;SDS011;67776;52.012;4.736;2024-01-11T04:19:53;13.10;;;4.97;;
78489;SDS011;67776;52.012;4.736;2024-01-11T04:22:19;13.20;;;5.15;;
78489;SDS011;67776;52.012;4.736;2024-01-11T04:24:44;14.80;;;5.73;;
78489;SDS011;67776;52.012;4.736;2024-01-11T04:27:09;14.47;;;5.53;;
78489;SDS011;67776;52.012;4.736;2024-01-11T04:29:35;17.67;;;6.47;;
78489;SDS011;67776;52.012;4.736;2024-01-11T04:32:00;22.23;;;7.43;;
78489;SDS011;67776;52.012;4.736;2024-01-11T04:34:26;11.63;;;5.25;;
78489;SDS011;67776;52.012;4.736;2024-01-11T04:36:51;16.43;;;5.17;;
78489;SDS011;67776;52.012;4.736;2024-01-11T04:39:17;15.87;;;5.33;;
78489;SDS011;67776;52.012;4.736;2024-01-11T04:41:42;14.27;;;5.93;;
78489;SDS011;67776;52.012;4.736;2024-01-11T04:44:07;15.27;;;6.27;;
78489;SDS011;67776;52.012;4.736;2024-01-11T04:46:34;13.33;;;5.43;;
78489;SDS011;67776;52.012;4.736;2024-01-11T04:48:59;14.80;;;6.03;;
78489;SDS011;67776;52.012;4.736;2024-01-11T04:51:25;17.57;;;7.53;;
78489;SDS011;67776;52.012;4.736;2024-01-11T04:53:50;16.17;;;6.40;;
78489;SDS011;67776;52.012;4.736;2024-01-11T04:56:16;19.80;;;6.77;;
78489;SDS011;67776;52.012;4.736;2024-01-11T04:58:42;17.52;;;7.03;;
78489;SDS011;67776;52.012;4.736;2024-01-11T05:01:12;18.95;;;7.57;;
78489;SDS011;67776;52.012;4.736;2024-01-11T05:03:41;12.77;;;5.55;;
78489;SDS011;67776;52.012;4.736;2024-01-11T05:06:07;15.53;;;6.87;;
78489;SDS011;67776;52.012;4.736;2024-01-11T05:08:33;17.98;;;7.10;;
78489;SDS011;67776;52.012;4.736;2024-01-11T05:10:58;13.43;;;6.27;;
78489;SDS011;67776;52.012;4.736;2024-01-11T05:13:24;11.87;;;5.87;;
78489;SDS011;67776;52.012;4.736;2024-01-11T05:15:49;15.37;;;6.23;;
78489;SDS011;67776;52.012;4.736;2024-01-11T05:18:14;16.43;;;6.07;;
78489;SDS011;67776;52.012;4.736;2024-01-11T05:20:40;19.70;;;7.47;;
78489;SDS011;67776;52.012;4.736;2024-01-11T05:23:05;18.20;;;7.15;;
78489;SDS011;67776;52.012;4.736;2024-01-11T05:25:31;16.57;;;6.67;;
78489;SDS011;67776;52.012;4.736;2024-01-11T05:28:00;18.85;;;6.53;;
78489;SDS011;67776;52.012;4.736;2024-01-11T05:30:26;17.67;;;8.15;;
78489;SDS011;67776;52.012;4.736;2024-01-11T05:32:52;17.33;;;5.88;;
78489;SDS011;67776;52.012;4.736;2024-01-11T05:35:17;17.60;;;7.20;;
78489;SDS011;67776;52.012;4.736;2024-01-11T05:37:43;16.23;;;6.70;;
78489;SDS011;67776;52.012;4.736;2024-01-11T05:40:08;17.97;;;7.97;;
78489;SDS011;67776;52.012;4.736;2024-01-11T05:42:34;20.43;;;6.70;;
78489;SDS011;67776;52.012;4.736;2024-01-11T05:44:59;17.88;;;6.95;;
78489;SDS011;67776;52.012;4.736;2024-01-11T05:47:24;14.53;;;6.30;;
78489;SDS011;67776;52.012;4.736;2024-01-11T05:49:50;15.17;;;6.57;;
78489;SDS011;67776;52.012;4.736;2024-01-11T05:52:15;17.80;;;6.70;;
78489;SDS011;67776;52.012;4.736;2024-01-11T05:54:40;20.53;;;6.33;;
78489;SDS011;67776;52.012;4.736;2024-01-11T05:57:06;17.05;;;6.53;;
78489;SDS011;67776;52.012;4.736;2024-01-11T05:59:32;20.43;;;7.13;;
78489;SDS011;67776;52.012;4.736;2024-01-11T06:01:57;14.55;;;6.55;;
78489;SDS011;67776;52.012;4.736;2024-01-11T06:04:25;20.17;;;6.67;;
78489;SDS011;67776;52.012;4.736;2024-01-11T06:06:51;18.65;;;7.88;;
78489;SDS011;67776;52.012;4.736;2024-01-11T06:09:16;17.17;;;6.75;;
78489;SDS011;67776;52.012;4.736;2024-01-11T06:11:42;18.57;;;6.93;;
78489;SDS011;67776;52.012;4.736;2024-01-11T06:14:07;20.27;;;6.97;;
78489;SDS011;67776;52.012;4.736;2024-01-11T06:16:33;20.37;;;7.43;;
78489;SDS011;67776;52.012;4.736;2024-01-11T06:18:58;20.27;;;7.07;;
78489;SDS011;67776;52.012;4.736;2024-01-11T06:21:23;16.27;;;6.43;;
78489;SDS011;67776;52.012;4.736;2024-01-11T06:23:49;20.23;;;7.57;;
78489;SDS011;67776;52.012;4.736;2024-01-11T06:26:14;17.93;;;6.43;;
78489;SDS011;67776;52.012;4.736;2024-01-11T06:28:39;20.23;;;6.80;;
78489;SDS011;67776;52.012;4.736;2024-01-11T06:31:05;18.00;;;7.37;;
78489;SDS011;67776;52.012;4.736;2024-01-11T06:33:31;21.00;;;7.32;;
78489;SDS011;67776;52.012;4.736;2024-01-11T06:35:58;24.02;;;8.02;;
78489;SDS011;67776;52.012;4.736;2024-01-11T06:38:23;15.17;;;6.90;;
78489;SDS011;67776;52.012;4.736;2024-01-11T06:40:49;16.67;;;7.63;;
78489;SDS011;67776;52.012;4.736;2024-01-11T06:43:14;18.85;;;8.35;;
78489;SDS011;67776;52.012;4.736;2024-01-11T06:45:43;16.93;;;7.20;;
78489;SDS011;67776;52.012;4.736;2024-01-11T06:48:08;21.33;;;7.13;;
78489;SDS011;67776;52.012;4.736;2024-01-11T06:50:34;27.00;;;9.00;;
78489;SDS011;67776;52.012;4.736;2024-01-11T06:52:59;18.83;;;7.90;;
78489;SDS011;67776;52.012;4.736;2024-01-11T06:55:26;19.43;;;7.67;;
78489;SDS011;67776;52.012;4.736;2024-01-11T06:57:51;17.52;;;8.15;;
78489;SDS011;67776;52.012;4.736;2024-01-11T07:00:16;18.83;;;8.40;;
78489;SDS011;67776;52.012;4.736;2024-01-11T07:02:42;23.80;;;7.80;;
78489;SDS011;67776;52.012;4.736;2024-01-11T07:05:07;20.57;;;7.27;;
78489;SDS011;67776;52.012;4.736;2024-01-11T07:07:33;16.40;;;6.70;;
78489;SDS011;67776;52.012;4.736;2024-01-11T07:09:58;18.80;;;7.90;;
78489;SDS011;67776;52.012;4.736;2024-01-11T07:12:24;16.63;;;6.93;;
78489;SDS011;67776;52.012;4.736;2024-01-11T07:14:50;20.90;;;7.18;;
78489;SDS011;67776;52.012;4.736;2024-01-11T07:17:16;20.98;;;7.90;;
78489;SDS011;67776;52.012;4.736;2024-01-11T07:19:42;24.10;;;8.63;;
78489;SDS011;67776;52.012;4.736;2024-01-11T07:22:07;19.00;;;8.13;;
78489;SDS011;67776;52.012;4.736;2024-01-11T07:24:32;15.83;;;7.83;;
78489;SDS011;67776;52.012;4.736;2024-01-11T07:27:03;21.67;;;8.43;;
78489;SDS011;67776;52.012;4.736;2024-01-11T07:29:30;15.70;;;6.50;;
78489;SDS011;67776;52.012;4.736;2024-01-11T07:31:55;21.80;;;8.03;;
78489;SDS011;67776;52.012;4.736;2024-01-11T07:34:20;19.17;;;7.60;;
78489;SDS011;67776;52.012;4.736;2024-01-11T07:36:45;22.47;;;7.83;;
78489;SDS011;67776;52.012;4.736;2024-01-11T07:39:11;28.92;;;9.15;;
78489;SDS011;67776;52.012;4.736;2024-01-11T07:41:37;21.33;;;9.50;;
78489;SDS011;67776;52.012;4.736;2024-01-11T07:44:02;21.50;;;9.30;;
78489;SDS011;67776;52.012;4.736;2024-01-11T07:46:28;22.77;;;7.83;;
78489;SDS011;67776;52.012;4.736;2024-01-11T07:48:53;20.73;;;8.37;;
78489;SDS011;67776;52.012;4.736;2024-01-11T07:51:19;21.58;;;9.20;;
78489;SDS011;67776;52.012;4.736;2024-01-11T07:53:45;22.87;;;8.67;;
78489;SDS011;67776;52.012;4.736;2024-01-11T07:56:10;23.42;;;8.73;;
78489;SDS011;67776;52.012;4.736;2024-01-11T07:58:36;24.83;;;8.20;;
78489;SDS011;67776;52.012;4.736;2024-01-11T08:01:02;18.90;;;6.97;;
78489;SDS011;67776;52.012;4.736;2024-01-11T08:03:29;26.50;;;9.90;;
78489;SDS011;67776;52.012;4.736;2024-01-11T08:05:54;23.70;;;8.45;;
78489;SDS011;67776;52.012;4.736;2024-01-11T08:08:20;21.55;;;8.15;;
78489;SDS011;67776;52.012;4.736;2024-01-11T08:10:47;21.90;;;8.67;;
78489;SDS011;67776;52.012;4.736;2024-01-11T08:13:13;21.20;;;9.00;;
78489;SDS011;67776;52.012;4.736;2024-01-11T08:15:39;19.17;;;8.10;;
78489;SDS011;67776;52.012;4.736;2024-01-11T08:18:04;20.53;;;7.83;;
78489;SDS011;67776;52.012;4.736;2024-01-11T08:20:30;21.00;;;8.70;;
78489;SDS011;67776;52.012;4.736;2024-01-11T08:22:55;21.73;;;7.83;;
78489;SDS011;67776;52.012;4.736;2024-01-11T08:25:21;17.85;;;7.43;;
78489;SDS011;67776;52.012;4.736;2024-01-11T08:27:47;24.52;;;8.35;;
78489;SDS011;67776;52.012;4.736;2024-01-11T08:30:13;17.90;;;7.80;;
78489;SDS011;67776;52.012;4.736;2024-01-11T08:32:39;23.95;;;8.45;;
78489;SDS011;67776;52.012;4.736;2024-01-11T08:35:06;24.55;;;9.95;;
78489;SDS011;67776;52.012;4.736;2024-01-11T08:37:34;29.73;;;10.20;;
78489;SDS011;67776;52.012;4.736;2024-01-11T08:40:00;19.92;;;8.85;;
78489;SDS011;67776;52.012;4.736;2024-01-11T08:42:25;23.70;;;8.47;;
78489;SDS011;67776;52.012;4.736;2024-01-11T08:44:50;17.03;;;8.23;;
78489;SDS011;67776;52.012;4.736;2024-01-11T08:47:17;19.45;;;7.95;;
78489;SDS011;67776;52.012;4.736;2024-01-11T08:49:42;24.57;;;8.30;;
78489;SDS011;67776;52.012;4.736;2024-01-11T08:52:08;25.50;;;9.37;;
78489;SDS011;67776;52.012;4.736;2024-01-11T08:54:33;23.13;;;9.83;;
78489;SDS011;67776;52.012;4.736;2024-01-11T08:56:59;19.42;;;8.98;;
78489;SDS011;67776;52.012;4.736;2024-01-11T08:59:25;15.97;;;7.10;;
78489;SDS011;67776;52.012;4.736;2024-01-11T09:01:51;22.45;;;8.63;;
78489;SDS011;67776;52.012;4.736;2024-01-11T09:04:16;24.00;;;8.30;;
78489;SDS011;67776;52.012;4.736;2024-01-11T09:06:42;23.13;;;8.33;;
78489;SDS011;67776;52.012;4.736;2024-01-11T09:09:08;27.27;;;8.57;;
78489;SDS011;67776;52.012;4.736;2024-01-11T09:11:35;24.33;;;9.07;;
78489;SDS011;67776;52.012;4.736;2024-01-11T09:14:01;24.80;;;8.50;;
78489;SDS011;67776;52.012;4.736;2024-01-11T09:16:27;24.42;;;10.18;;
78489;SDS011;67776;52.012;4.736;2024-01-11T09:18:53;20.20;;;8.07;;
78489;SDS011;67776;52.012;4.736;2024-01-11T09:21:18;20.13;;;8.80;;
78489;SDS011;67776;52.012;4.736;2024-01-11T09:23:44;25.10;;;9.32;;
78489;SDS011;67776;52.012;4.736;2024-01-11T09:26:09;20.37;;;9.37;;
78489;SDS011;67776;52.012;4.736;2024-01-11T09:28:35;18.43;;;7.97;;
78489;SDS011;67776;52.012;4.736;2024-01-11T09:31:00;22.00;;;8.13;;
78489;SDS011;67776;52.012;4.736;2024-01-11T09:33:26;26.17;;;9.38;;
78489;SDS011;67776;52.012;4.736;2024-01-11T09:35:52;27.20;;;8.75;;
78489;SDS011;67776;52.012;4.736;2024-01-11T09:38:18;20.70;;;8.17;;
78489;SDS011;67776;52.012;4.736;2024-01-11T09:40:43;21.50;;;7.87;;
78489;SDS011;67776;52.012;4.736;2024-01-11T09:43:08;20.85;;;8.02;;
78489;SDS011;67776;52.012;4.736;2024-01-11T09:45:34;16.07;;;6.80;;
78489;SDS011;67776;52.012;4.736;2024-01-11T09:48:02;20.63;;;7.90;;
78489;SDS011;67776;52.012;4.736;2024-01-11T09:50:30;22.70;;;8.23;;
78489;SDS011;67776;52.012;4.736;2024-01-11T09:52:55;24.47;;;7.97;;
78489;SDS011;67776;52.012;4.736;2024-01-11T09:55:20;19.03;;;7.13;;
78489;SDS011;67776;52.012;4.736;2024-01-11T09:57:47;18.50;;;6.70;;
78489;SDS011;67776;52.012;4.736;2024-01-11T10:00:13;15.73;;;6.25;;
78489;SDS011;67776;52.012;4.736;2024-01-11T10:02:41;19.38;;;7.68;;
78489;SDS011;67776;52.012;4.736;2024-01-11T10:05:07;21.27;;;7.60;;
78489;SDS011;67776;52.012;4.736;2024-01-11T10:07:34;21.60;;;7.33;;
78489;SDS011;67776;52.012;4.736;2024-01-11T10:09:59;20.85;;;8.23;;
78489;SDS011;67776;52.012;4.736;2024-01-11T10:12:26;21.75;;;7.82;;
78489;SDS011;67776;52.012;4.736;2024-01-11T10:14:52;19.48;;;7.35;;
78489;SDS011;67776;52.012;4.736;2024-01-11T10:17:18;18.33;;;8.10;;
78489;SDS011;67776;52.012;4.736;2024-01-11T10:19:46;22.17;;;7.87;;
78489;SDS011;67776;52.012;4.736;2024-01-11T10:22:11;21.17;;;8.88;;
78489;SDS011;67776;52.012;4.736;2024-01-11T10:24:42;18.20;;;7.75;;
78489;SDS011;67776;52.012;4.736;2024-01-11T10:27:10;23.20;;;8.10;;
78489;SDS011;67776;52.012;4.736;2024-01-11T10:29:36;21.95;;;8.25;;
78489;SDS011;67776;52.012;4.736;2024-01-11T10:32:05;19.10;;;8.55;;
78489;SDS011;67776;52.012;4.736;2024-01-11T10:34:30;20.52;;;8.25;;
78489;SDS011;67776;52.012;4.736;2024-01-11T10:36:56;25.23;;;9.03;;
78489;SDS011;67776;52.012;4.736;2024-01-11T10:39:25;21.08;;;8.95;;
78489;SDS011;67776;52.012;4.736;2024-01-11T10:41:52;20.85;;;8.75;;
78489;SDS011;67776;52.012;4.736;2024-01-11T10:44:40;21.87;;;8.43;;
78489;SDS011;67776;52.012;4.736;2024-01-11T10:47:11;21.40;;;7.97;;
78489;SDS011;67776;52.012;4.736;2024-01-11T10:49:39;22.42;;;8.27;;
78489;SDS011;67776;52.012;4.736;2024-01-11T10:52:05;18.45;;;7.68;;
78489;SDS011;67776;52.012;4.736;2024-01-11T10:54:33;17.75;;;6.97;;
78489;SDS011;67776;52.012;4.736;2024-01-11T10:56:59;17.27;;;7.30;;
78489;SDS011;67776;52.012;4.736;2024-01-11T10:59:26;22.73;;;8.63;;
78489;SDS011;67776;52.012;4.736;2024-01-11T11:01:53;18.38;;;8.50;;
78489;SDS011;67776;52.012;4.736;2024-01-11T11:04:25;23.52;;;8.05;;
78489;SDS011;67776;52.012;4.736;2024-01-11T11:06:56;25.02;;;8.45;;
78489;SDS011;67776;52.012;4.736;2024-01-11T11:09:24;21.17;;;8.57;;
78489;SDS011;67776;52.012;4.736;2024-01-11T11:11:56;19.75;;;7.30;;
78489;SDS011;67776;52.012;4.736;2024-01-11T11:14:23;23.15;;;8.45;;
78489;SDS011;67776;52.012;4.736;2024-01-11T11:16:49;17.83;;;8.35;;
78489;SDS011;67776;52.012;4.736;2024-01-11T11:19:16;21.30;;;8.95;;
78489;SDS011;67776;52.012;4.736;2024-01-11T11:21:44;25.43;;;10.17;;
78489;SDS011;67776;52.012;4.736;2024-01-11T11:24:10;24.27;;;10.77;;
78489;SDS011;67776;52.012;4.736;2024-01-11T11:26:36;33.78;;;13.13;;
78489;SDS011;67776;52.012;4.736;2024-01-11T11:29:03;30.47;;;11.83;;
78489;SDS011;67776;52.012;4.736;2024-01-11T11:31:35;27.30;;;11.13;;
78489;SDS011;67776;52.012;4.736;2024-01-11T11:34:01;28.65;;;11.07;;
78489;SDS011;67776;52.012;4.736;2024-01-11T11:36:29;22.08;;;9.63;;
78489;SDS011;67776;52.012;4.736;2024-01-11T11:38:55;24.33;;;9.50;;
78489;SDS011;67776;52.012;4.736;2024-01-11T11:41:25;21.58;;;8.10;;
78489;SDS011;67776;52.012;4.736;2024-01-11T11:43:51;22.95;;;8.32;;
78489;SDS011;67776;52.012;4.736;2024-01-11T11:46:16;20.87;;;8.17;;
78489;SDS011;67776;52.012;4.736;2024-01-11T11:51:17;20.57;;;7.33;;
78489;SDS011;67776;52.012;4.736;2024-01-11T11:53:45;21.02;;;8.88;;
78489;SDS011;67776;52.012;4.736;2024-01-11T11:56:11;19.63;;;7.57;;
78489;SDS011;67776;52.012;4.736;2024-01-11T11:58:43;21.20;;;8.20;;
78489;SDS011;67776;52.012;4.736;2024-01-11T12:01:09;20.30;;;7.53;;
78489;SDS011;67776;52.012;4.736;2024-01-11T12:03:36;16.03;;;7.47;;
78489;SDS011;67776;52.012;4.736;2024-01-11T12:06:03;19.25;;;7.75;;
78489;SDS011;67776;52.012;4.736;2024-01-11T12:08:29;20.47;;;8.00;;
78489;SDS011;67776;52.012;4.736;2024-01-11T12:10:55;18.67;;;7.63;;
78489;SDS011;67776;52.012;4.736;2024-01-11T12:13:20;20.57;;;7.67;;
78489;SDS011;67776;52.012;4.736;2024-01-11T12:15:46;22.27;;;7.82;;
78489;SDS011;67776;52.012;4.736;2024-01-11T12:18:12;20.20;;;7.70;;
78489;SDS011;67776;52.012;4.736;2024-01-11T12:20:37;21.23;;;7.63;;
78489;SDS011;67776;52.012;4.736;2024-01-11T12:23:03;18.37;;;7.30;;
78489;SDS011;67776;52.012;4.736;2024-01-11T12:25:29;24.70;;;9.07;;
78489;SDS011;67776;52.012;4.736;2024-01-11T12:27:55;17.50;;;7.93;;
78489;SDS011;67776;52.012;4.736;2024-01-11T12:30:24;19.60;;;7.00;;
78489;SDS011;67776;52.012;4.736;2024-01-11T12:32:50;19.45;;;6.82;;
78489;SDS011;67776;52.012;4.736;2024-01-11T12:35:16;20.10;;;7.63;;
78489;SDS011;67776;52.012;4.736;2024-01-11T12:38:02;22.03;;;8.30;;
78489;SDS011;67776;52.012;4.736;2024-01-11T12:40:34;17.95;;;7.22;;
78489;SDS011;67776;52.012;4.736;2024-01-11T12:43:00;17.52;;;7.18;;
78489;SDS011;67776;52.012;4.736;2024-01-11T12:45:26;18.52;;;7.07;;
78489;SDS011;67776;52.012;4.736;2024-01-11T12:47:51;18.30;;;8.07;;
78489;SDS011;67776;52.012;4.736;2024-01-11T12:50:19;19.10;;;7.05;;
78489;SDS011;67776;52.012;4.736;2024-01-11T12:52:45;18.63;;;6.97;;
78489;SDS011;67776;52.012;4.736;2024-01-11T12:55:17;19.73;;;7.70;;
78489;SDS011;67776;52.012;4.736;2024-01-11T12:57:44;17.37;;;7.07;;
78489;SDS011;67776;52.012;4.736;2024-01-11T13:00:13;17.83;;;6.75;;
78489;SDS011;67776;52.012;4.736;2024-01-11T13:02:39;17.95;;;7.55;;
78489;SDS011;67776;52.012;4.736;2024-01-11T13:05:05;17.67;;;7.33;;
78489;SDS011;67776;52.012;4.736;2024-01-11T13:07:32;18.40;;;8.20;;
78489;SDS011;67776;52.012;4.736;2024-01-11T13:09:57;19.60;;;7.87;;
78489;SDS011;67776;52.012;4.736;2024-01-11T13:12:22;19.00;;;7.70;;
78489;SDS011;67776;52.012;4.736;2024-01-11T13:14:48;20.58;;;7.47;;
78489;SDS011;67776;52.012;4.736;2024-01-11T13:17:15;18.30;;;7.22;;
78489;SDS011;67776;52.012;4.736;2024-01-11T13:19:41;17.53;;;7.13;;
78489;SDS011;67776;52.012;4.736;2024-01-11T13:22:07;17.87;;;6.67;;
78489;SDS011;67776;52.012;4.736;2024-01-11T13:24:32;17.67;;;7.40;;
78489;SDS011;67776;52.012;4.736;2024-01-11T13:26:58;16.83;;;6.57;;
78489;SDS011;67776;52.012;4.736;2024-01-11T13:29:23;17.27;;;6.63;;
78489;SDS011;67776;52.012;4.736;2024-01-11T13:31:48;16.77;;;6.53;;
78489;SDS011;67776;52.012;4.736;2024-01-11T13:34:14;18.23;;;7.38;;
78489;SDS011;67776;52.012;4.736;2024-01-11T13:36:40;15.27;;;6.47;;
78489;SDS011;67776;52.012;4.736;2024-01-11T13:39:05;18.03;;;6.70;;
78489;SDS011;67776;52.012;4.736;2024-01-11T13:41:33;18.70;;;7.13;;
78489;SDS011;67776;52.012;4.736;2024-01-11T13:43:59;18.03;;;6.80;;
78489;SDS011;67776;52.012;4.736;2024-01-11T13:46:25;17.77;;;6.72;;
78489;SDS011;67776;52.012;4.736;2024-01-11T13:48:50;13.43;;;6.60;;
78489;SDS011;67776;52.012;4.736;2024-01-11T13:51:15;18.57;;;6.87;;
78489;SDS011;67776;52.012;4.736;2024-01-11T13:53:41;17.83;;;6.75;;
78489;SDS011;67776;52.012;4.736;2024-01-11T13:56:06;19.27;;;7.50;;
78489;SDS011;67776;52.012;4.736;2024-01-11T13:58:32;17.67;;;6.77;;
78489;SDS011;67776;52.012;4.736;2024-01-11T14:00:57;17.17;;;6.88;;
78489;SDS011;67776;52.012;4.736;2024-01-11T14:03:23;15.70;;;6.70;;
78489;SDS011;67776;52.012;4.736;2024-01-11T14:05:49;16.27;;;6.35;;
78489;SDS011;67776;52.012;4.736;2024-01-11T14:08:14;15.87;;;6.03;;
78489;SDS011;67776;52.012;4.736;2024-01-11T14:10:39;16.63;;;7.17;;
78489;SDS011;67776;52.012;4.736;2024-01-11T14:13:05;16.53;;;7.00;;
78489;SDS011;67776;52.012;4.736;2024-01-11T14:15:33;15.93;;;6.43;;
78489;SDS011;67776;52.012;4.736;2024-01-11T14:17:59;17.85;;;6.57;;
78489;SDS011;67776;52.012;4.736;2024-01-11T14:20:24;19.97;;;7.50;;
78489;SDS011;67776;52.012;4.736;2024-01-11T14:22:50;15.80;;;6.37;;
78489;SDS011;67776;52.012;4.736;2024-01-11T14:25:16;19.53;;;6.93;;
78489;SDS011;67776;52.012;4.736;2024-01-11T14:27:42;17.02;;;6.78;;
78489;SDS011;67776;52.012;4.736;2024-01-11T14:30:09;15.63;;;6.20;;
78489;SDS011;67776;52.012;4.736;2024-01-11T14:32:36;15.63;;;6.30;;